sensor_id;sensor_type;location;lat;lon;timestamp;pressure;altitude;pressure_sealevel;temperature;humidity
71774;BME280;59607;52.130;5.430;2023-04-09T00:00:30;102745.13;;;9.46;100.00
71774;BME280;59607;52.130;5.430;2023-04-09T00:02:57;102743.56;;;9.43;100.00
71774;BME280;59607;52.130;5.430;2023-04-09T00:05:30;102745.34;;;9.43;100.00
71774;BME280;59607;52.130;5.430;2023-04-09T00:07:56;102747.84;;;9.44;100.00
71774;BME280;59607;52.130;5.430;2023-04-09T00:10:28;102741.69;;;9.45;100.00
71774;BME280;59607;52.130;5.430;2023-04-09T00:13:02;102747.13;;;9.42;100.00
71774;BME280;59607;52.130;5.430;2023-04-09T00:15:32;102753.09;;;9.44;100.00
71774;BME280;59607;52.130;5.430;2023-04-09T00:18:00;102745.22;;;9.44;100.00
71774;BME280;59607;52.130;5.430;2023-04-09T00:20:27;102748.69;;;9.45;100.00
71774;BME280;59607;52.130;5.430;2023-04-09T00:23:00;102741.69;;;9.45;100.00
71774;BME280;59607;52.130;5.430;2023-04-09T00:25:26;102744.41;;;9.44;100.00
71774;BME280;59607;52.130;5.430;2023-04-09T00:27:58;102741.28;;;9.38;100.00
71774;BME280;59607;52.130;5.430;2023-04-09T00:30:28;102732.56;;;9.38;100.00
71774;BME280;59607;52.130;5.430;2023-04-09T00:32:55;102736.03;;;9.38;100.00
71774;BME280;59607;52.130;5.430;2023-04-09T00:35:28;102733.41;;;9.38;100.00
71774;BME280;59607;52.130;5.430;2023-04-09T00:37:54;102730.91;;;9.37;100.00
71774;BME280;59607;52.130;5.430;2023-04-09T00:40:21;102732.66;;;9.36;100.00
71774;BME280;59607;52.130;5.430;2023-04-09T00:42:47;102727.31;;;9.38;100.00
71774;BME280;59607;52.130;5.430;2023-04-09T00:45:16;102737.00;;;9.37;100.00
71774;BME280;59607;52.130;5.430;2023-04-09T00:47:46;102723.91;;;9.37;100.00
71774;BME280;59607;52.130;5.430;2023-04-09T00:50:15;102730.78;;;9.38;100.00
71774;BME280;59607;52.130;5.430;2023-04-09T00:52:42;102726.41;;;9.39;100.00
71774;BME280;59607;52.130;5.430;2023-04-09T00:55:12;102724.94;;;9.35;100.00
71774;BME280;59607;52.130;5.430;2023-04-09T00:57:42;102724.06;;;9.34;100.00
71774;BME280;59607;52.130;5.430;2023-04-09T01:00:10;102719.69;;;9.35;100.00
71774;BME280;59607;52.130;5.430;2023-04-09T01:02:39;102724.94;;;9.35;100.00
71774;BME280;59607;52.130;5.430;2023-04-09T01:05:10;102718.03;;;9.34;100.00
71774;BME280;59607;52.130;5.430;2023-04-09T01:11:31;102718.25;;;9.31;100.00
71774;BME280;59607;52.130;5.430;2023-04-09T01:20:09;102715.28;;;9.35;100.00
71774;BME280;59607;52.130;5.430;2023-04-09T01:25:43;102710.97;;;9.34;100.00
71774;BME280;59607;52.130;5.430;2023-04-09T01:28:34;102705.03;;;9.32;100.00
71774;BME280;59607;52.130;5.430;2023-04-09T01:31:08;102708.38;;;9.34;100.00
71774;BME280;59607;52.130;5.430;2023-04-09T01:33:41;102709.22;;;9.35;100.00
71774;BME280;59607;52.130;5.430;2023-04-09T01:36:08;102707.22;;;9.38;100.00
71774;BME280;59607;52.130;5.430;2023-04-09T01:38:43;102707.22;;;9.38;100.00
71774;BME280;59607;52.130;5.430;2023-04-09T01:41:14;102695.91;;;9.38;100.00
71774;BME280;59607;52.130;5.430;2023-04-09T01:43:52;102696.22;;;9.33;100.00
71774;BME280;59607;52.130;5.430;2023-04-09T01:46:20;102696.22;;;9.33;100.00
71774;BME280;59607;52.130;5.430;2023-04-09T01:48:50;102695.59;;;9.30;100.00
71774;BME280;59607;52.130;5.430;2023-04-09T01:51:18;102685.22;;;9.28;100.00
71774;BME280;59607;52.130;5.430;2023-04-09T01:53:48;102698.97;;;9.32;100.00
71774;BME280;59607;52.130;5.430;2023-04-09T01:56:18;102693.63;;;9.33;100.00
71774;BME280;59607;52.130;5.430;2023-04-09T01:58:56;102692.66;;;9.34;100.00
71774;BME280;59607;52.130;5.430;2023-04-09T02:01:28;102689.00;;;9.37;100.00
71774;BME280;59607;52.130;5.430;2023-04-09T02:04:01;102690.03;;;9.34;100.00
71774;BME280;59607;52.130;5.430;2023-04-09T02:06:54;102691.84;;;9.34;100.00
71774;BME280;59607;52.130;5.430;2023-04-09T02:09:28;102692.47;;;9.37;100.00
71774;BME280;59607;52.130;5.430;2023-04-09T02:12:04;102692.34;;;9.39;100.00
71774;BME280;59607;52.130;5.430;2023-04-09T02:14:35;102692.34;;;9.39;100.00
71774;BME280;59607;52.130;5.430;2023-04-09T02:17:05;102683.66;;;9.38;100.00
71774;BME280;59607;52.130;5.430;2023-04-09T02:19:42;102686.72;;;9.32;100.00
71774;BME280;59607;52.130;5.430;2023-04-09T02:22:08;102685.13;;;9.30;100.00
71774;BME280;59607;52.130;5.430;2023-04-09T02:24:35;102680.72;;;9.30;100.00
71774;BME280;59607;52.130;5.430;2023-04-09T02:27:06;102678.97;;;9.31;100.00
71774;BME280;59607;52.130;5.430;2023-04-09T02:29:41;102667.63;;;9.30;100.00
71774;BME280;59607;52.130;5.430;2023-04-09T02:32:14;102672.78;;;9.32;100.00
71774;BME280;59607;52.130;5.430;2023-04-09T02:34:40;102676.56;;;9.28;100.00
71774;BME280;59607;52.130;5.430;2023-04-09T02:37:07;102673.09;;;9.27;100.00
71774;BME280;59607;52.130;5.430;2023-04-09T02:39:43;102666.19;;;9.26;100.00
71774;BME280;59607;52.130;5.430;2023-04-09T02:42:09;102671.22;;;9.29;100.00
71774;BME280;59607;52.130;5.430;2023-04-09T02:44:36;102671.81;;;9.33;100.00
71774;BME280;59607;52.130;5.430;2023-04-09T02:47:05;102672.78;;;9.32;100.00
71774;BME280;59607;52.130;5.430;2023-04-09T02:49:33;102666.69;;;9.31;100.00
71774;BME280;59607;52.130;5.430;2023-04-09T02:51:59;102666.56;;;9.33;100.00
71774;BME280;59607;52.130;5.430;2023-04-09T02:54:26;102665.66;;;9.34;100.00
71774;BME280;59607;52.130;5.430;2023-04-09T02:56:52;102661.97;;;9.36;100.00
71774;BME280;59607;52.130;5.430;2023-04-09T02:59:19;102662.19;;;9.33;100.00
71774;BME280;59607;52.130;5.430;2023-04-09T03:01:50;102663.97;;;9.33;100.00
71774;BME280;59607;52.130;5.430;2023-04-09T03:04:17;102661.13;;;9.36;100.00
71774;BME280;59607;52.130;5.430;2023-04-09T03:06:49;102665.00;;;9.43;100.00
71774;BME280;59607;52.130;5.430;2023-04-09T03:09:20;102659.00;;;9.41;100.00
71774;BME280;59607;52.130;5.430;2023-04-09T03:11:46;102657.47;;;9.38;100.00
71774;BME280;59607;52.130;5.430;2023-04-09T03:14:30;102669.50;;;9.41;100.00
71774;BME280;59607;52.130;5.430;2023-04-09T03:17:04;102656.19;;;9.44;100.00
71774;BME280;59607;52.130;5.430;2023-04-09T03:19:36;102665.09;;;9.42;100.00
71774;BME280;59607;52.130;5.430;2023-04-09T03:22:07;102659.84;;;9.42;100.00
71774;BME280;59607;52.130;5.430;2023-04-09T03:24:34;102664.25;;;9.41;100.00
71774;BME280;59607;52.130;5.430;2023-04-09T03:27:06;102662.16;;;9.46;100.00
71774;BME280;59607;52.130;5.430;2023-04-09T03:29:33;102657.13;;;9.43;100.00
71774;BME280;59607;52.130;5.430;2023-04-09T03:32:00;102649.28;;;9.43;100.00
71774;BME280;59607;52.130;5.430;2023-04-09T03:34:29;102649.59;;;9.38;100.00
71774;BME280;59607;52.130;5.430;2023-04-09T03:36:55;102645.22;;;9.39;100.00
71774;BME280;59607;52.130;5.430;2023-04-09T03:39:22;102646.03;;;9.40;100.00
71774;BME280;59607;52.130;5.430;2023-04-09T03:42:06;102642.38;;;9.42;100.00
71774;BME280;59607;52.130;5.430;2023-04-09T03:44:35;102646.66;;;9.43;100.00
71774;BME280;59607;52.130;5.430;2023-04-09T03:47:02;102641.53;;;9.42;100.00
71774;BME280;59607;52.130;5.430;2023-04-09T03:49:33;102643.41;;;9.40;100.00
71774;BME280;59607;52.130;5.430;2023-04-09T03:52:05;102638.06;;;9.41;100.00
71774;BME280;59607;52.130;5.430;2023-04-09T03:54:32;102640.78;;;9.40;100.00
71774;BME280;59607;52.130;5.430;2023-04-09T03:56:58;102636.41;;;9.40;100.00
71774;BME280;59607;52.130;5.430;2023-04-09T03:59:28;102638.28;;;9.38;100.00
71774;BME280;59607;52.130;5.430;2023-04-09T04:01:54;102628.75;;;9.37;100.00
71774;BME280;59607;52.130;5.430;2023-04-09T04:04:26;102632.13;;;9.39;100.00
71774;BME280;59607;52.130;5.430;2023-04-09T04:06:53;102636.41;;;9.40;100.00
71774;BME280;59607;52.130;5.430;2023-04-09T04:09:25;102638.81;;;9.43;100.00
71774;BME280;59607;52.130;5.430;2023-04-09T04:11:54;102641.53;;;9.42;100.00
71774;BME280;59607;52.130;5.430;2023-04-09T04:14:27;102639.75;;;9.42;100.00
71774;BME280;59607;52.130;5.430;2023-04-09T04:16:53;102644.03;;;9.43;100.00
71774;BME280;59607;52.130;5.430;2023-04-09T04:19:19;102637.25;;;9.41;100.00
71774;BME280;59607;52.130;5.430;2023-04-09T04:21:46;102636.28;;;9.42;100.00
71774;BME280;59607;52.130;5.430;2023-04-09T04:24:20;102640.09;;;9.37;100.00
71774;BME280;59607;52.130;5.430;2023-04-09T04:26:46;102635.88;;;9.35;100.00
71774;BME280;59607;52.130;5.430;2023-04-09T04:29:16;102619.31;;;9.34;100.00
71774;BME280;59607;52.130;5.430;2023-04-09T04:31:45;102624.38;;;9.37;100.00
71774;BME280;59607;52.130;5.430;2023-04-09T04:34:13;102621.84;;;9.36;100.00
71774;BME280;59607;52.130;5.430;2023-04-09T04:36:48;102626.16;;;9.37;100.00
71774;BME280;59607;52.130;5.430;2023-04-09T04:39:15;102627.91;;;9.36;100.00
71774;BME280;59607;52.130;5.430;2023-04-09T04:41:43;102630.53;;;9.36;100.00
71774;BME280;59607;52.130;5.430;2023-04-09T04:44:09;102638.19;;;9.40;100.00
71774;BME280;59607;52.130;5.430;2023-04-09T04:46:36;102630.53;;;9.36;100.00
71774;BME280;59607;52.130;5.430;2023-04-09T04:49:02;102629.91;;;9.33;100.00
71774;BME280;59607;52.130;5.430;2023-04-09T04:51:35;102634.34;;;9.32;100.00
71774;BME280;59607;52.130;5.430;2023-04-09T04:54:03;102628.25;;;9.32;100.00
71774;BME280;59607;52.130;5.430;2023-04-09T04:56:30;102623.88;;;9.32;100.00
71774;BME280;59607;52.130;5.430;2023-04-09T04:58:57;102631.59;;;9.34;100.00
71774;BME280;59607;52.130;5.430;2023-04-09T05:01:23;102634.13;;;9.35;100.00
71774;BME280;59607;52.130;5.430;2023-04-09T05:03:52;102632.41;;;9.34;100.00
71774;BME280;59607;52.130;5.430;2023-04-09T05:06:23;102621.25;;;9.32;100.00
71774;BME280;59607;52.130;5.430;2023-04-09T05:08:49;102631.84;;;9.31;100.00
71774;BME280;59607;52.130;5.430;2023-04-09T05:11:17;102621.56;;;9.28;100.00
71774;BME280;59607;52.130;5.430;2023-04-09T05:13:46;102624.31;;;9.26;100.00
71774;BME280;59607;52.130;5.430;2023-04-09T05:16:16;102623.56;;;9.24;100.00
71774;BME280;59607;52.130;5.430;2023-04-09T05:19:02;102619.19;;;9.24;100.00
71774;BME280;59607;52.130;5.430;2023-04-09T05:21:31;102622.50;;;9.26;100.00
71774;BME280;59607;52.130;5.430;2023-04-09T05:23:58;102631.09;;;9.29;100.00
71774;BME280;59607;52.130;5.430;2023-04-09T05:26:24;102623.25;;;9.29;100.00
71774;BME280;59607;52.130;5.430;2023-04-09T05:28:54;102629.00;;;9.34;100.00
71774;BME280;59607;52.130;5.430;2023-04-09T05:31:21;102637.06;;;9.31;100.00
71774;BME280;59607;52.130;5.430;2023-04-09T05:33:48;102630.25;;;9.28;100.00
71774;BME280;59607;52.130;5.430;2023-04-09T05:36:23;102626.06;;;9.25;100.00
71774;BME280;59607;52.130;5.430;2023-04-09T05:38:51;102629.44;;;9.28;100.00
71774;BME280;59607;52.130;5.430;2023-04-09T05:41:32;102632.75;;;9.30;100.00
71774;BME280;59607;52.130;5.430;2023-04-09T05:44:05;102633.50;;;9.32;100.00
71774;BME280;59607;52.130;5.430;2023-04-09T05:46:31;102638.63;;;9.33;100.00
71774;BME280;59607;52.130;5.430;2023-04-09T05:49:08;102637.66;;;9.34;100.00
71774;BME280;59607;52.130;5.430;2023-04-09T05:51:34;102638.72;;;9.32;100.00
71774;BME280;59607;52.130;5.430;2023-04-09T05:54:04;102636.97;;;9.32;100.00
71774;BME280;59607;52.130;5.430;2023-04-09T05:56:35;102642.53;;;9.28;100.00
71774;BME280;59607;52.130;5.430;2023-04-09T05:59:05;102642.63;;;9.26;100.00
71774;BME280;59607;52.130;5.430;2023-04-09T06:01:34;102642.75;;;9.24;100.00
71774;BME280;59607;52.130;5.430;2023-04-09T06:04:01;102641.56;;;9.29;100.00
71774;BME280;59607;52.130;5.430;2023-04-09T06:06:29;102643.00;;;9.33;100.00
71774;BME280;59607;52.130;5.430;2023-04-09T06:08:58;102639.34;;;9.35;100.00
71774;BME280;59607;52.130;5.430;2023-04-09T06:11:24;102642.78;;;9.36;100.00
71774;BME280;59607;52.130;5.430;2023-04-09T06:14:01;102642.78;;;9.36;100.00
71774;BME280;59607;52.130;5.430;2023-04-09T06:16:27;102640.56;;;9.43;100.00
71774;BME280;59607;52.130;5.430;2023-04-09T06:18:54;102645.47;;;9.47;99.78
71774;BME280;59607;52.130;5.430;2023-04-09T06:21:24;102645.25;;;9.50;99.48
71774;BME280;59607;52.130;5.430;2023-04-09T06:23:51;102647.78;;;9.52;99.14
71774;BME280;59607;52.130;5.430;2023-04-09T06:26:28;102644.56;;;9.48;98.98
71774;BME280;59607;52.130;5.430;2023-04-09T06:28:54;102641.47;;;9.55;98.94
71774;BME280;59607;52.130;5.430;2023-04-09T06:31:21;102652.69;;;9.57;98.85
71774;BME280;59607;52.130;5.430;2023-04-09T06:33:47;102656.34;;;9.54;99.58
71774;BME280;59607;52.130;5.430;2023-04-09T06:36:13;102656.97;;;9.58;100.00
71774;BME280;59607;52.130;5.430;2023-04-09T06:38:40;102658.31;;;9.63;100.00
71774;BME280;59607;52.130;5.430;2023-04-09T06:41:19;102660.28;;;9.73;100.00
71774;BME280;59607;52.130;5.430;2023-04-09T06:43:46;102664.69;;;9.72;99.87
71774;BME280;59607;52.130;5.430;2023-04-09T06:46:47;102655.75;;;9.75;100.00
71774;BME280;59607;52.130;5.430;2023-04-09T06:49:29;102654.34;;;9.82;100.00
71774;BME280;59607;52.130;5.430;2023-04-09T06:52:15;102661.66;;;9.90;99.55
71774;BME280;59607;52.130;5.430;2023-04-09T06:54:45;102656.75;;;9.85;98.98
71774;BME280;59607;52.130;5.430;2023-04-09T06:57:14;102663.44;;;9.90;99.51
71774;BME280;59607;52.130;5.430;2023-04-09T06:59:46;102664.78;;;9.95;99.87
71774;BME280;59607;52.130;5.430;2023-04-09T07:02:13;102661.81;;;10.00;99.20
71774;BME280;59607;52.130;5.430;2023-04-09T07:04:40;102665.50;;;9.97;99.28
71774;BME280;59607;52.130;5.430;2023-04-09T07:07:10;102662.91;;;10.09;98.60
71774;BME280;59607;52.130;5.430;2023-04-09T07:09:37;102663.44;;;10.25;95.84
71774;BME280;59607;52.130;5.430;2023-04-09T07:12:04;102661.56;;;10.39;93.88
71774;BME280;59607;52.130;5.430;2023-04-09T07:14:36;102659.81;;;10.51;92.55
71774;BME280;59607;52.130;5.430;2023-04-09T07:17:03;102661.66;;;10.85;91.77
71774;BME280;59607;52.130;5.430;2023-04-09T07:19:32;102654.38;;;11.00;86.97
71774;BME280;59607;52.130;5.430;2023-04-09T07:22:00;102662.34;;;10.98;88.37
71774;BME280;59607;52.130;5.430;2023-04-09T07:24:26;102662.59;;;11.18;85.71
71774;BME280;59607;52.130;5.430;2023-04-09T07:26:52;102655.91;;;11.14;85.22
71774;BME280;59607;52.130;5.430;2023-04-09T07:29:24;102667.69;;;11.31;83.84
71774;BME280;59607;52.130;5.430;2023-04-09T07:31:51;102669.59;;;11.41;80.90
71774;BME280;59607;52.130;5.430;2023-04-09T07:34:27;102662.31;;;11.44;80.01
71774;BME280;59607;52.130;5.430;2023-04-09T07:36:53;102668.72;;;11.52;78.61
71774;BME280;59607;52.130;5.430;2023-04-09T07:39:25;102667.91;;;11.51;79.09
71774;BME280;59607;52.130;5.430;2023-04-09T07:41:56;102669.38;;;11.77;77.91
71774;BME280;59607;52.130;5.430;2023-04-09T07:44:23;102660.88;;;12.06;76.47
71774;BME280;59607;52.130;5.430;2023-04-09T07:47:09;102659.19;;;12.16;75.72
71774;BME280;59607;52.130;5.430;2023-04-09T07:49:41;102655.47;;;12.19;74.51
71774;BME280;59607;52.130;5.430;2023-04-09T07:52:10;102663.69;;;12.26;74.00
71774;BME280;59607;52.130;5.430;2023-04-09T07:54:38;102656.63;;;12.26;73.63
71774;BME280;59607;52.130;5.430;2023-04-09T07:57:04;102654.31;;;12.12;73.35
71774;BME280;59607;52.130;5.430;2023-04-09T07:59:33;102660.69;;;11.97;73.61
71774;BME280;59607;52.130;5.430;2023-04-09T08:02:04;102660.09;;;11.94;73.46
71774;BME280;59607;52.130;5.430;2023-04-09T08:04:32;102649.75;;;11.81;74.54
71774;BME280;59607;52.130;5.430;2023-04-09T08:07:05;102651.47;;;12.03;73.75
71774;BME280;59607;52.130;5.430;2023-04-09T08:09:32;102653.63;;;12.09;73.32
71774;BME280;59607;52.130;5.430;2023-04-09T08:12:00;102658.34;;;11.83;72.74
71774;BME280;59607;52.130;5.430;2023-04-09T08:14:29;102656.41;;;11.96;72.95
71774;BME280;59607;52.130;5.430;2023-04-09T08:16:56;102661.84;;;12.05;72.82
71774;BME280;59607;52.130;5.430;2023-04-09T08:19:23;102648.84;;;12.03;73.58
71774;BME280;59607;52.130;5.430;2023-04-09T08:21:50;102656.75;;;12.25;72.89
71774;BME280;59607;52.130;5.430;2023-04-09T08:24:21;102655.09;;;12.24;71.77
71774;BME280;59607;52.130;5.430;2023-04-09T08:26:47;102655.22;;;12.22;72.76
71774;BME280;59607;52.130;5.430;2023-04-09T08:29:20;102661.84;;;12.05;73.04
71774;BME280;59607;52.130;5.430;2023-04-09T08:31:46;102658.34;;;12.16;73.01
71774;BME280;59607;52.130;5.430;2023-04-09T08:34:14;102661.78;;;12.28;72.44
71774;BME280;59607;52.130;5.430;2023-04-09T08:36:46;102656.00;;;12.13;71.53
71774;BME280;59607;52.130;5.430;2023-04-09T08:39:16;102656.72;;;12.46;72.53
71774;BME280;59607;52.130;5.430;2023-04-09T08:41:45;102651.44;;;12.99;70.61
71774;BME280;59607;52.130;5.430;2023-04-09T08:44:13;102651.16;;;13.02;69.39
71774;BME280;59607;52.130;5.430;2023-04-09T08:46:50;102661.09;;;12.88;70.06
71774;BME280;59607;52.130;5.430;2023-04-09T08:49:16;102660.22;;;12.78;70.04
71774;BME280;59607;52.130;5.430;2023-04-09T08:51:50;102652.00;;;12.40;70.87
71774;BME280;59607;52.130;5.430;2023-04-09T08:54:17;102655.66;;;12.49;71.62
71774;BME280;59607;52.130;5.430;2023-04-09T08:56:54;102653.44;;;12.85;70.97
71774;BME280;59607;52.130;5.430;2023-04-09T08:59:24;102655.22;;;13.26;70.33
71774;BME280;59607;52.130;5.430;2023-04-09T09:02:09;102650.72;;;13.67;70.09
71774;BME280;59607;52.130;5.430;2023-04-09T09:07:15;102646.66;;;13.33;68.08
71774;BME280;59607;52.130;5.430;2023-04-09T09:09:54;102645.28;;;13.39;67.88
71774;BME280;59607;52.130;5.430;2023-04-09T09:14:59;102642.34;;;12.81;69.78
71774;BME280;59607;52.130;5.430;2023-04-09T09:17:30;102637.38;;;12.88;70.13
71774;BME280;59607;52.130;5.430;2023-04-09T09:20:18;102636.78;;;13.26;70.04
71774;BME280;59607;52.130;5.430;2023-04-09T09:22:53;102629.06;;;13.44;67.95
71774;BME280;59607;52.130;5.430;2023-04-09T09:25:24;102638.19;;;13.30;68.62
71774;BME280;59607;52.130;5.430;2023-04-09T09:27:52;102638.59;;;13.25;69.56
71774;BME280;59607;52.130;5.430;2023-04-09T09:30:24;102629.31;;;13.31;68.98
71774;BME280;59607;52.130;5.430;2023-04-09T09:33:09;102628.91;;;13.45;69.66
71774;BME280;59607;52.130;5.430;2023-04-09T09:35:51;102625.84;;;13.30;69.21
71774;BME280;59607;52.130;5.430;2023-04-09T09:38:22;102630.25;;;13.10;68.96
71774;BME280;59607;52.130;5.430;2023-04-09T09:40:51;102625.53;;;13.04;69.96
71774;BME280;59607;52.130;5.430;2023-04-09T09:43:21;102618.63;;;13.32;68.66
71774;BME280;59607;52.130;5.430;2023-04-09T09:45:48;102615.78;;;13.65;68.07
71774;BME280;59607;52.130;5.430;2023-04-09T09:48:16;102620.63;;;13.70;67.54
71774;BME280;59607;52.130;5.430;2023-04-09T09:50:45;102620.91;;;13.77;67.31
71774;BME280;59607;52.130;5.430;2023-04-09T09:53:16;102616.00;;;13.92;68.28
71774;BME280;59607;52.130;5.430;2023-04-09T09:56:13;102609.84;;;14.21;67.18
71774;BME280;59607;52.130;5.430;2023-04-09T09:58:53;102606.88;;;13.96;66.15
71774;BME280;59607;52.130;5.430;2023-04-09T10:01:23;102615.34;;;13.90;65.60
71774;BME280;59607;52.130;5.430;2023-04-09T10:03:52;102606.72;;;13.88;65.90
71774;BME280;59607;52.130;5.430;2023-04-09T10:06:19;102606.00;;;14.05;64.88
71774;BME280;59607;52.130;5.430;2023-04-09T10:08:47;102610.84;;;14.10;64.63
71774;BME280;59607;52.130;5.430;2023-04-09T10:11:20;102599.69;;;14.26;64.47
71774;BME280;59607;52.130;5.430;2023-04-09T10:13:58;102601.94;;;14.11;64.30
71774;BME280;59607;52.130;5.430;2023-04-09T10:16:25;102595.06;;;13.90;64.97
71774;BME280;59607;52.130;5.430;2023-04-09T10:19:00;102588.22;;;14.17;65.51
71774;BME280;59607;52.130;5.430;2023-04-09T10:21:48;102585.25;;;14.59;64.49
71774;BME280;59607;52.130;5.430;2023-04-09T10:24:53;102574.78;;;14.39;63.64
71774;BME280;59607;52.130;5.430;2023-04-09T10:27:26;102567.44;;;14.71;63.36
71774;BME280;59607;52.130;5.430;2023-04-09T10:29:53;102562.91;;;15.09;61.45
71774;BME280;59607;52.130;5.430;2023-04-09T10:32:34;102562.50;;;14.86;60.38
71774;BME280;59607;52.130;5.430;2023-04-09T10:35:04;102560.47;;;14.69;61.35
71774;BME280;59607;52.130;5.430;2023-04-09T10:37:47;102553.78;;;15.03;62.58
71774;BME280;59607;52.130;5.430;2023-04-09T10:40:18;102563.56;;;14.93;60.70
71774;BME280;59607;52.130;5.430;2023-04-09T10:42:49;102564.78;;;15.17;60.62
71774;BME280;59607;52.130;5.430;2023-04-09T10:45:19;102561.19;;;15.18;58.98
71774;BME280;59607;52.130;5.430;2023-04-09T10:47:52;102547.72;;;15.11;60.17
71774;BME280;59607;52.130;5.430;2023-04-09T10:50:26;102540.53;;;15.22;59.88
71774;BME280;59607;52.130;5.430;2023-04-09T10:53:05;102545.81;;;15.58;59.64
71774;BME280;59607;52.130;5.430;2023-04-09T10:55:42;102544.72;;;15.69;59.56
71774;BME280;59607;52.130;5.430;2023-04-09T10:58:13;102543.72;;;15.70;58.71
71774;BME280;59607;52.130;5.430;2023-04-09T11:01:00;102539.09;;;15.46;58.57
71774;BME280;59607;52.130;5.430;2023-04-09T11:03:41;102535.78;;;15.44;58.79
71774;BME280;59607;52.130;5.430;2023-04-09T11:06:15;102530.91;;;15.57;57.53
71774;BME280;59607;52.130;5.430;2023-04-09T11:08:48;102532.75;;;15.57;56.44
71774;BME280;59607;52.130;5.430;2023-04-09T11:11:15;102528.56;;;15.54;56.41
71774;BME280;59607;52.130;5.430;2023-04-09T11:13:42;102522.16;;;15.83;57.20
71774;BME280;59607;52.130;5.430;2023-04-09T11:16:14;102521.84;;;16.13;54.23
71774;BME280;59607;52.130;5.430;2023-04-09T11:18:50;102516.41;;;15.88;54.03
71774;BME280;59607;52.130;5.430;2023-04-09T11:21:20;102519.31;;;15.76;54.43
71774;BME280;59607;52.130;5.430;2023-04-09T11:24:11;102513.56;;;15.81;54.09
71774;BME280;59607;52.130;5.430;2023-04-09T11:26:38;102518.28;;;15.69;52.67
71774;BME280;59607;52.130;5.430;2023-04-09T11:29:08;102517.69;;;15.57;52.73
71774;BME280;59607;52.130;5.430;2023-04-09T11:32:07;102509.59;;;15.85;53.23
71774;BME280;59607;52.130;5.430;2023-04-09T11:34:37;102514.94;;;15.94;51.79
71774;BME280;59607;52.130;5.430;2023-04-09T11:37:04;102502.50;;;15.86;51.82
71774;BME280;59607;52.130;5.430;2023-04-09T11:39:37;102502.47;;;16.12;53.16
71774;BME280;59607;52.130;5.430;2023-04-09T11:42:16;102508.03;;;16.36;52.04
71774;BME280;59607;52.130;5.430;2023-04-09T11:44:45;102506.97;;;16.12;51.13
71774;BME280;59607;52.130;5.430;2023-04-09T11:47:21;102519.22;;;15.95;51.42
71774;BME280;59607;52.130;5.430;2023-04-09T11:49:52;102514.94;;;15.67;52.11
71774;BME280;59607;52.130;5.430;2023-04-09T11:52:19;102517.16;;;15.80;52.15
71774;BME280;59607;52.130;5.430;2023-04-09T11:54:51;102511.84;;;15.98;51.03
71774;BME280;59607;52.130;5.430;2023-04-09T11:57:20;102506.88;;;16.30;51.45
71774;BME280;59607;52.130;5.430;2023-04-09T11:59:46;102505.25;;;16.46;50.00
71774;BME280;59607;52.130;5.430;2023-04-09T12:02:22;102504.47;;;16.10;50.01
71774;BME280;59607;52.130;5.430;2023-04-09T12:04:50;102507.00;;;15.94;51.34
71774;BME280;59607;52.130;5.430;2023-04-09T12:07:22;102498.00;;;15.78;51.61
71774;BME280;59607;52.130;5.430;2023-04-09T12:09:49;102499.97;;;15.76;51.09
71774;BME280;59607;52.130;5.430;2023-04-09T12:12:26;102486.41;;;15.79;51.39
71774;BME280;59607;52.130;5.430;2023-04-09T12:14:53;102494.16;;;15.99;49.31
71774;BME280;59607;52.130;5.430;2023-04-09T12:17:39;102491.81;;;15.69;49.81
71774;BME280;59607;52.130;5.430;2023-04-09T12:20:09;102482.13;;;16.13;49.65
71774;BME280;59607;52.130;5.430;2023-04-09T12:22:36;102492.53;;;16.06;50.19
71774;BME280;59607;52.130;5.430;2023-04-09T12:25:21;102488.69;;;16.44;49.55
71774;BME280;59607;52.130;5.430;2023-04-09T12:28:04;102492.53;;;16.58;48.75
71774;BME280;59607;52.130;5.430;2023-04-09T12:30:37;102480.91;;;16.42;48.31
71774;BME280;59607;52.130;5.430;2023-04-09T12:33:03;102490.38;;;16.53;48.62
71774;BME280;59607;52.130;5.430;2023-04-09T12:35:38;102496.03;;;16.67;47.90
71774;BME280;59607;52.130;5.430;2023-04-09T12:38:05;102496.84;;;16.59;47.81
71774;BME280;59607;52.130;5.430;2023-04-09T12:40:38;102489.09;;;16.65;47.57
71774;BME280;59607;52.130;5.430;2023-04-09T12:43:07;102489.13;;;16.74;48.39
71774;BME280;59607;52.130;5.430;2023-04-09T12:45:34;102484.66;;;17.08;47.98
71774;BME280;59607;52.130;5.430;2023-04-09T12:48:00;102473.91;;;17.34;47.20
71774;BME280;59607;52.130;5.430;2023-04-09T12:50:27;102479.69;;;17.46;46.76
71774;BME280;59607;52.130;5.430;2023-04-09T12:52:53;102481.50;;;17.46;46.61
71774;BME280;59607;52.130;5.430;2023-04-09T12:55:20;102474.00;;;17.66;45.76
71774;BME280;59607;52.130;5.430;2023-04-09T12:57:50;102477.50;;;17.58;45.17
71774;BME280;59607;52.130;5.430;2023-04-09T13:00:17;102483.97;;;17.56;45.82
71774;BME280;59607;52.130;5.430;2023-04-09T13:02:49;102477.56;;;17.25;46.04
71774;BME280;59607;52.130;5.430;2023-04-09T13:05:21;102485.63;;;16.98;47.25
71774;BME280;59607;52.130;5.430;2023-04-09T13:07:50;102478.53;;;17.41;45.83
71774;BME280;59607;52.130;5.430;2023-04-09T13:10:24;102477.03;;;17.46;45.95
71774;BME280;59607;52.130;5.430;2023-04-09T13:12:56;102479.38;;;17.24;45.96
71774;BME280;59607;52.130;5.430;2023-04-09T13:15:26;102472.72;;;17.03;46.58
71774;BME280;59607;52.130;5.430;2023-04-09T13:17:55;102469.91;;;17.05;46.00
71774;BME280;59607;52.130;5.430;2023-04-09T13:20:32;102472.59;;;17.30;46.18
71774;BME280;59607;52.130;5.430;2023-04-09T13:23:06;102470.09;;;17.29;45.49
71774;BME280;59607;52.130;5.430;2023-04-09T13:25:32;102476.88;;;17.14;46.80
71774;BME280;59607;52.130;5.430;2023-04-09T13:28:00;102471.22;;;17.43;45.25